sensor_id;sensor_type;location;lat;lon;timestamp;pressure;altitude;pressure_sealevel;temperature;humidity
11017;BME280;54687;50.800;6.772;2023-07-28T00:00:37;91514.28;;;-144.06;26.86
11017;BME280;54687;50.800;6.772;2023-07-28T00:03:04;91520.63;;;-144.06;26.74
11017;BME280;54687;50.800;6.772;2023-07-28T00:05:30;91455.06;;;-144.06;26.54
11017;BME280;54687;50.800;6.772;2023-07-28T00:08:02;91455.06;;;-144.06;26.69
11017;BME280;54687;50.800;6.772;2023-07-28T00:10:29;91438.13;;;-144.06;26.72
11017;BME280;54687;50.800;6.772;2023-07-28T00:12:56;91427.56;;;-144.06;26.60
11017;BME280;54687;50.800;6.772;2023-07-28T00:15:22;91421.22;;;-144.06;26.81
11017;BME280;54687;50.800;6.772;2023-07-28T00:17:50;91400.06;;;-144.06;26.60
11017;BME280;54687;50.800;6.772;2023-07-28T00:20:20;91309.13;;;-144.06;26.44
11017;BME280;54687;50.800;6.772;2023-07-28T00:22:49;91277.41;;;-144.06;26.39
11017;BME280;54687;50.800;6.772;2023-07-28T00:25:17;91260.50;;;-144.06;26.48
11017;BME280;54687;50.800;6.772;2023-07-28T00:27:45;91311.25;;;-144.06;26.49
11017;BME280;54687;50.800;6.772;2023-07-28T00:30:14;91285.88;;;-144.06;26.38
11017;BME280;54687;50.800;6.772;2023-07-28T00:32:41;91332.41;;;-144.06;26.46
11017;BME280;54687;50.800;6.772;2023-07-28T00:35:10;91264.72;;;-144.06;26.44
11017;BME280;54687;50.800;6.772;2023-07-28T00:37:38;91281.63;;;-144.06;26.41
11017;BME280;54687;50.800;6.772;2023-07-28T00:40:07;91116.69;;;-144.06;26.40
11017;BME280;54687;50.800;6.772;2023-07-28T00:42:35;91068.06;;;-144.06;26.20
11017;BME280;54687;50.800;6.772;2023-07-28T00:45:05;91040.56;;;-144.06;26.13
11017;BME280;54687;50.800;6.772;2023-07-28T00:47:33;91112.47;;;-144.06;26.25
11017;BME280;54687;50.800;6.772;2023-07-28T00:50:00;91146.28;;;-144.06;26.37
11017;BME280;54687;50.800;6.772;2023-07-28T00:52:28;91230.88;;;-144.06;26.42
11017;BME280;54687;50.800;6.772;2023-07-28T00:54:55;91260.50;;;-144.06;26.32
11017;BME280;54687;50.800;6.772;2023-07-28T00:57:21;91256.25;;;-144.06;26.41
11017;BME280;54687;50.800;6.772;2023-07-28T00:59:48;91254.16;;;-144.06;26.35
11017;BME280;54687;50.800;6.772;2023-07-28T01:02:15;91256.25;;;-144.06;26.45
11017;BME280;54687;50.800;6.772;2023-07-28T01:04:41;91239.34;;;-144.06;26.38
11017;BME280;54687;50.800;6.772;2023-07-28T01:07:10;91268.94;;;-144.06;26.40
11017;BME280;54687;50.800;6.772;2023-07-28T01:10:01;91133.59;;;-144.06;26.32
11017;BME280;54687;50.800;6.772;2023-07-28T01:12:28;91030.00;;;-144.06;26.18
11017;BME280;54687;50.800;6.772;2023-07-28T01:14:55;91015.19;;;-144.06;26.22
11017;BME280;54687;50.800;6.772;2023-07-28T01:17:21;90943.28;;;-144.06;26.12
11017;BME280;54687;50.800;6.772;2023-07-28T01:19:49;90939.06;;;-144.06;26.25
11017;BME280;54687;50.800;6.772;2023-07-28T01:22:35;90953.88;;;-144.06;26.15
11017;BME280;54687;50.800;6.772;2023-07-28T01:25:15;90875.63;;;-144.06;25.99
11017;BME280;54687;50.800;6.772;2023-07-28T01:27:46;90807.97;;;-144.06;25.98
11017;BME280;54687;50.800;6.772;2023-07-28T01:30:14;90854.47;;;-144.06;25.97
11017;BME280;54687;50.800;6.772;2023-07-28T01:32:40;90782.59;;;-144.06;25.91
11017;BME280;54687;50.800;6.772;2023-07-28T01:35:08;90816.41;;;-144.06;25.95
11017;BME280;54687;50.800;6.772;2023-07-28T01:37:34;90778.38;;;-144.06;25.88
11017;BME280;54687;50.800;6.772;2023-07-28T01:40:01;90634.59;;;-144.06;25.61
11017;BME280;54687;50.800;6.772;2023-07-28T01:42:28;90592.28;;;-144.06;25.93
11017;BME280;54687;50.800;6.772;2023-07-28T01:44:56;90562.69;;;-144.06;25.64
11017;BME280;54687;50.800;6.772;2023-07-28T01:47:22;90490.81;;;-144.06;25.68
11017;BME280;54687;50.800;6.772;2023-07-28T01:49:50;90448.53;;;-144.06;25.68
11017;BME280;54687;50.800;6.772;2023-07-28T01:52:17;90374.53;;;-144.06;25.53
11017;BME280;54687;50.800;6.772;2023-07-28T01:54:43;90435.84;;;-144.06;25.71
11017;BME280;54687;50.800;6.772;2023-07-28T01:57:10;90514.06;;;-144.06;25.56
11017;BME280;54687;50.800;6.772;2023-07-28T01:59:36;90448.53;;;-144.06;25.55
11017;BME280;54687;50.800;6.772;2023-07-28T02:02:05;90480.22;;;-144.06;25.61
11017;BME280;54687;50.800;6.772;2023-07-28T02:04:32;90528.88;;;-144.06;25.74
11017;BME280;54687;50.800;6.772;2023-07-28T02:06:58;90528.88;;;-144.06;25.77
11017;BME280;54687;50.800;6.772;2023-07-28T02:09:25;90698.00;;;-144.06;25.81
11017;BME280;54687;50.800;6.772;2023-07-28T02:11:52;90841.78;;;-144.06;26.03
11017;BME280;54687;50.800;6.772;2023-07-28T02:14:19;90820.66;;;-144.06;26.17
11017;BME280;54687;50.800;6.772;2023-07-28T02:16:46;90947.53;;;-144.06;26.11
11017;BME280;54687;50.800;6.772;2023-07-28T02:19:14;90901.00;;;-144.06;26.00
11017;BME280;54687;50.800;6.772;2023-07-28T02:21:40;90968.66;;;-144.06;26.05
11017;BME280;54687;50.800;6.772;2023-07-28T02:24:07;90998.28;;;-144.06;26.19
11017;BME280;54687;50.800;6.772;2023-07-28T02:26:33;91036.34;;;-144.06;26.39
11017;BME280;54687;50.800;6.772;2023-07-28T02:29:00;90996.16;;;-144.06;26.22
11017;BME280;54687;50.800;6.772;2023-07-28T02:31:27;91030.00;;;-144.06;26.23
11017;BME280;54687;50.800;6.772;2023-07-28T02:33:54;91049.03;;;-144.06;26.28
11017;BME280;54687;50.800;6.772;2023-07-28T02:36:22;91084.97;;;-144.06;26.36
11017;BME280;54687;50.800;6.772;2023-07-28T02:38:49;91072.28;;;-144.06;26.35
11017;BME280;54687;50.800;6.772;2023-07-28T02:41:16;91046.91;;;-144.06;26.47
11017;BME280;54687;50.800;6.772;2023-07-28T02:43:42;90985.59;;;-144.06;26.20
11017;BME280;54687;50.800;6.772;2023-07-28T02:46:09;90951.75;;;-144.06;26.13
11017;BME280;54687;50.800;6.772;2023-07-28T02:48:35;90930.59;;;-144.06;26.15
11017;BME280;54687;50.800;6.772;2023-07-28T02:51:03;90875.63;;;-144.06;26.14
11017;BME280;54687;50.800;6.772;2023-07-28T02:53:31;90833.34;;;-144.06;25.88
11017;BME280;54687;50.800;6.772;2023-07-28T02:55:57;90892.53;;;-144.06;26.19
11017;BME280;54687;50.800;6.772;2023-07-28T02:58:24;90846.03;;;-144.06;26.21
11017;BME280;54687;50.800;6.772;2023-07-28T03:00:51;90901.00;;;-144.06;26.00
11017;BME280;54687;50.800;6.772;2023-07-28T03:03:18;90905.22;;;-144.06;26.13
11017;BME280;54687;50.800;6.772;2023-07-28T03:05:45;90850.25;;;-144.06;26.08
11017;BME280;54687;50.800;6.772;2023-07-28T03:08:11;90772.00;;;-144.06;26.02
11017;BME280;54687;50.800;6.772;2023-07-28T03:10:39;90740.31;;;-144.06;26.04
11017;BME280;54687;50.800;6.772;2023-07-28T03:13:06;90729.72;;;-144.06;25.78
11017;BME280;54687;50.800;6.772;2023-07-28T03:15:32;90706.47;;;-144.06;25.91
11017;BME280;54687;50.800;6.772;2023-07-28T03:17:59;90681.09;;;-144.06;26.00
11017;BME280;54687;50.800;6.772;2023-07-28T03:20:25;90651.50;;;-144.06;25.76
11017;BME280;54687;50.800;6.772;2023-07-28T03:22:52;90698.00;;;-144.06;25.83
11017;BME280;54687;50.800;6.772;2023-07-28T03:25:20;90702.25;;;-144.06;25.88
11017;BME280;54687;50.800;6.772;2023-07-28T03:27:48;90672.63;;;-144.06;26.18
11017;BME280;54687;50.800;6.772;2023-07-28T03:30:14;90643.03;;;-144.06;25.97
11017;BME280;54687;50.800;6.772;2023-07-28T03:32:41;90657.84;;;-144.06;25.95
11017;BME280;54687;50.800;6.772;2023-07-28T03:35:08;90543.66;;;-144.06;25.71
11017;BME280;54687;50.800;6.772;2023-07-28T03:37:35;90505.59;;;-144.06;25.78
11017;BME280;54687;50.800;6.772;2023-07-28T03:40:02;90473.91;;;-144.06;25.89
11017;BME280;54687;50.800;6.772;2023-07-28T03:42:28;90461.22;;;-144.06;25.66
11017;BME280;54687;50.800;6.772;2023-07-28T03:44:56;90359.72;;;-144.06;25.84
11017;BME280;54687;50.800;6.772;2023-07-28T03:47:23;90296.31;;;-144.06;25.82
11017;BME280;54687;50.800;6.772;2023-07-28T03:49:49;90148.31;;;-144.06;25.58
11017;BME280;54687;50.800;6.772;2023-07-28T03:52:16;90141.97;;;-144.06;25.46
11017;BME280;54687;50.800;6.772;2023-07-28T03:54:43;90154.66;;;-144.06;25.44
11017;BME280;54687;50.800;6.772;2023-07-28T03:57:09;90177.91;;;-144.06;25.49
11017;BME280;54687;50.800;6.772;2023-07-28T03:59:36;90150.44;;;-144.06;25.64
11017;BME280;54687;50.800;6.772;2023-07-28T04:02:04;90122.94;;;-144.06;25.59
11017;BME280;54687;50.800;6.772;2023-07-28T04:04:31;89955.94;;;-144.06;25.22
11017;BME280;54687;50.800;6.772;2023-07-28T04:06:57;90029.94;;;-144.06;25.57
11017;BME280;54687;50.800;6.772;2023-07-28T04:09:24;90004.56;;;-144.06;25.56
11017;BME280;54687;50.800;6.772;2023-07-28T04:11:51;89881.94;;;-144.06;25.36
11017;BME280;54687;50.800;6.772;2023-07-28T04:14:17;89881.94;;;-144.06;25.14
11017;BME280;54687;50.800;6.772;2023-07-28T04:16:44;89721.28;;;-144.06;25.30
11017;BME280;54687;50.800;6.772;2023-07-28T04:19:12;89676.91;;;-144.06;25.14
11017;BME280;54687;50.800;6.772;2023-07-28T04:21:38;89628.28;;;-144.06;24.96
11017;BME280;54687;50.800;6.772;2023-07-28T04:24:06;89446.50;;;-144.06;25.15
11017;BME280;54687;50.800;6.772;2023-07-28T04:26:32;89474.00;;;-144.06;25.14
11017;BME280;54687;50.800;6.772;2023-07-28T04:28:59;89488.78;;;-144.06;24.95
11017;BME280;54687;50.800;6.772;2023-07-28T04:31:26;89454.97;;;-144.06;25.15
11017;BME280;54687;50.800;6.772;2023-07-28T04:33:52;89450.75;;;-144.06;24.95
11017;BME280;54687;50.800;6.772;2023-07-28T04:36:20;89416.91;;;-144.06;25.14
11017;BME280;54687;50.800;6.772;2023-07-28T04:38:47;89315.47;;;-144.06;24.83
11017;BME280;54687;50.800;6.772;2023-07-28T04:41:13;89315.47;;;-144.06;25.09
11017;BME280;54687;50.800;6.772;2023-07-28T04:43:40;89171.75;;;-144.06;24.80
11017;BME280;54687;50.800;6.772;2023-07-28T04:46:06;89025.91;;;-144.06;24.67
11017;BME280;54687;50.800;6.772;2023-07-28T04:48:33;88985.75;;;-144.06;24.65
11017;BME280;54687;50.800;6.772;2023-07-28T04:50:59;89074.53;;;-144.06;24.77
11017;BME280;54687;50.800;6.772;2023-07-28T04:53:27;88856.84;;;-144.06;24.58
11017;BME280;54687;50.800;6.772;2023-07-28T04:55:54;88905.47;;;-144.06;24.69
11017;BME280;54687;50.800;6.772;2023-07-28T04:58:21;88761.75;;;-144.06;24.58
11017;BME280;54687;50.800;6.772;2023-07-28T05:00:47;88520.84;;;-144.06;24.46
11017;BME280;54687;50.800;6.772;2023-07-28T05:03:14;88711.03;;;-144.06;24.62
11017;BME280;54687;50.800;6.772;2023-07-28T05:05:42;88723.72;;;-144.06;24.70
11017;BME280;54687;50.800;6.772;2023-07-28T05:08:09;88740.63;;;-144.06;24.53
11017;BME280;54687;50.800;6.772;2023-07-28T05:10:37;88584.25;;;-144.06;24.52
11017;BME280;54687;50.800;6.772;2023-07-28T05:13:04;88398.31;;;-144.06;24.62
11017;BME280;54687;50.800;6.772;2023-07-28T05:15:30;88343.34;;;-144.06;24.43
11017;BME280;54687;50.800;6.772;2023-07-28T05:17:57;88343.34;;;-144.06;24.31
11017;BME280;54687;50.800;6.772;2023-07-28T05:20:24;88294.75;;;-144.06;24.42
11017;BME280;54687;50.800;6.772;2023-07-28T05:22:50;88326.47;;;-144.06;24.40
11017;BME280;54687;50.800;6.772;2023-07-28T05:25:17;88588.47;;;-144.06;24.75
11017;BME280;54687;50.800;6.772;2023-07-28T05:27:45;88605.38;;;-144.06;24.76
11017;BME280;54687;50.800;6.772;2023-07-28T05:30:11;88542.00;;;-144.06;24.58
11017;BME280;54687;50.800;6.772;2023-07-28T05:32:38;88518.75;;;-144.06;24.70
11017;BME280;54687;50.800;6.772;2023-07-28T05:35:05;88436.34;;;-144.06;24.66
11017;BME280;54687;50.800;6.772;2023-07-28T05:37:32;88588.47;;;-144.06;24.73
11017;BME280;54687;50.800;6.772;2023-07-28T05:39:58;88660.31;;;-144.06;24.57
11017;BME280;54687;50.800;6.772;2023-07-28T05:42:25;88596.94;;;-144.06;24.75
11017;BME280;54687;50.800;6.772;2023-07-28T05:44:53;88618.06;;;-144.06;24.55
11017;BME280;54687;50.800;6.772;2023-07-28T05:47:20;88474.38;;;-144.06;24.58
11017;BME280;54687;50.800;6.772;2023-07-28T05:49:47;88658.22;;;-144.06;24.80
11017;BME280;54687;50.800;6.772;2023-07-28T05:52:13;88772.31;;;-144.06;24.83
11017;BME280;54687;50.800;6.772;2023-07-28T05:54:40;88782.88;;;-144.06;24.81
11017;BME280;54687;50.800;6.772;2023-07-28T05:57:06;88537.75;;;-144.06;24.64
11017;BME280;54687;50.800;6.772;2023-07-28T05:59:33;88356.03;;;-144.06;24.61
11017;BME280;54687;50.800;6.772;2023-07-28T06:02:01;88347.59;;;-144.06;24.69
11017;BME280;54687;50.800;6.772;2023-07-28T06:04:28;88231.38;;;-144.06;24.61
11017;BME280;54687;50.800;6.772;2023-07-28T06:06:54;88203.91;;;-144.06;24.51
11017;BME280;54687;50.800;6.772;2023-07-28T06:09:21;88345.47;;;-144.06;24.55
11017;BME280;54687;50.800;6.772;2023-07-28T06:11:48;88064.47;;;-144.06;24.44
11017;BME280;54687;50.800;6.772;2023-07-28T06:14:15;87979.94;;;-144.06;24.45
11017;BME280;54687;50.800;6.772;2023-07-28T06:16:41;87726.44;;;-144.06;24.40
11017;BME280;54687;50.800;6.772;2023-07-28T06:19:09;87439.13;;;-144.06;24.26
11017;BME280;54687;50.800;6.772;2023-07-28T06:21:36;87278.59;;;-144.06;24.12
11017;BME280;54687;50.800;6.772;2023-07-28T06:24:02;87058.91;;;-144.06;24.21
11017;BME280;54687;50.800;6.772;2023-07-28T06:26:29;86716.75;;;-144.06;23.95
11017;BME280;54687;50.800;6.772;2023-07-28T06:28:56;86421.09;;;-144.06;23.73
11017;BME280;54687;50.800;6.772;2023-07-28T06:31:23;86326.06;;;-144.06;23.90
11017;BME280;54687;50.800;6.772;2023-07-28T06:33:56;86387.31;;;-144.06;23.75
11017;BME280;54687;50.800;6.772;2023-07-28T06:36:25;86294.38;;;-144.06;23.92
11017;BME280;54687;50.800;6.772;2023-07-28T06:38:52;86478.13;;;-144.06;23.78
11017;BME280;54687;50.800;6.772;2023-07-28T06:41:20;86444.31;;;-144.06;23.79
11017;BME280;54687;50.800;6.772;2023-07-28T06:43:47;86410.53;;;-144.06;23.91
11017;BME280;54687;50.800;6.772;2023-07-28T06:46:14;86471.78;;;-144.06;23.88
11017;BME280;54687;50.800;6.772;2023-07-28T06:48:41;86630.16;;;-144.06;23.92
11017;BME280;54687;50.800;6.772;2023-07-28T06:51:07;86860.38;;;-144.06;23.92
11017;BME280;54687;50.800;6.772;2023-07-28T06:53:35;87010.34;;;-144.06;24.17
11017;BME280;54687;50.800;6.772;2023-07-28T06:56:02;87077.94;;;-144.06;23.84
11017;BME280;54687;50.800;6.772;2023-07-28T06:58:29;87194.09;;;-144.06;24.22
11017;BME280;54687;50.800;6.772;2023-07-28T07:00:57;86938.53;;;-144.06;24.10
11017;BME280;54687;50.800;6.772;2023-07-28T07:03:24;86712.53;;;-144.06;23.76
11017;BME280;54687;50.800;6.772;2023-07-28T07:05:51;86273.28;;;-144.06;23.75
11017;BME280;54687;50.800;6.772;2023-07-28T07:08:17;86547.81;;;-144.06;23.82
11017;BME280;54687;50.800;6.772;2023-07-28T07:10:49;86467.56;;;-144.06;23.91
11017;BME280;54687;50.800;6.772;2023-07-28T07:13:17;86277.50;;;-144.06;23.89
11017;BME280;54687;50.800;6.772;2023-07-28T07:15:43;85496.25;;;-144.06;23.45
11017;BME280;54687;50.800;6.772;2023-07-28T07:18:11;85310.47;;;-144.06;23.74
11017;BME280;54687;50.800;6.772;2023-07-28T07:20:38;84919.94;;;-144.06;23.44
11017;BME280;54687;50.800;6.772;2023-07-28T07:23:05;85156.34;;;-144.06;23.43
11017;BME280;54687;50.800;6.772;2023-07-28T07:25:32;84613.88;;;-144.06;23.28
11017;BME280;54687;50.800;6.772;2023-07-28T07:28:00;84561.09;;;-144.06;23.16
11017;BME280;54687;50.800;6.772;2023-07-28T07:30:26;84044.03;;;-144.06;23.28
11017;BME280;54687;50.800;6.772;2023-07-28T07:32:54;83012.22;;;-144.06;23.01
11017;BME280;54687;50.800;6.772;2023-07-28T07:35:20;82961.59;;;-144.06;22.99
11017;BME280;54687;50.800;6.772;2023-07-28T07:37:47;82600.84;;;-144.06;22.96
11017;BME280;54687;50.800;6.772;2023-07-28T07:40:13;82316.09;;;-144.06;22.77
11017;BME280;54687;50.800;6.772;2023-07-28T07:42:41;82109.38;;;-144.06;22.62
11017;BME280;54687;50.800;6.772;2023-07-28T07:45:11;82179.00;;;-144.06;22.67
11017;BME280;54687;50.800;6.772;2023-07-28T07:47:38;83681.06;;;-144.06;22.91
11017;BME280;54687;50.800;6.772;2023-07-28T07:50:06;83292.84;;;-144.06;22.86
11017;BME280;54687;50.800;6.772;2023-07-28T07:52:34;82828.69;;;-144.06;22.83
11017;BME280;54687;50.800;6.772;2023-07-28T07:55:01;82442.66;;;-144.06;22.76
11017;BME280;54687;50.800;6.772;2023-07-28T07:57:28;82664.16;;;-144.06;22.79
11017;BME280;54687;50.800;6.772;2023-07-28T07:59:57;82031.34;;;-144.06;22.55
11017;BME280;54687;50.800;6.772;2023-07-28T08:02:25;81816.22;;;-144.06;22.64
11017;BME280;54687;50.800;6.772;2023-07-28T08:04:52;80987.50;;;-144.06;22.58
11017;BME280;54687;50.800;6.772;2023-07-28T08:07:19;80995.94;;;-144.06;22.42
11017;BME280;54687;50.800;6.772;2023-07-28T08:09:46;79813.28;;;-144.06;22.30
11017;BME280;54687;50.800;6.772;2023-07-28T08:12:13;78919.72;;;-144.06;22.15
11017;BME280;54687;50.800;6.772;2023-07-28T08:14:41;79792.22;;;-144.06;22.25
11017;BME280;54687;50.800;6.772;2023-07-28T08:17:08;78601.53;;;-144.06;22.16
11017;BME280;54687;50.800;6.772;2023-07-28T08:19:36;76998.50;;;-144.06;21.94
11017;BME280;54687;50.800;6.772;2023-07-28T08:22:03;76333.03;;;-144.06;21.69
11017;BME280;54687;50.800;6.772;2023-07-28T08:24:31;76629.94;;;-144.06;21.72
11017;BME280;54687;50.800;6.772;2023-07-28T08:26:57;76147.75;;;-144.06;21.86
11017;BME280;54687;50.800;6.772;2023-07-28T08:29:24;75208.84;;;-144.06;21.39
11017;BME280;54687;50.800;6.772;2023-07-28T08:31:51;72768.00;;;-144.06;21.19
11017;BME280;54687;50.800;6.772;2023-07-28T08:34:17;73091.94;;;-144.06;21.54
11017;BME280;54687;50.800;6.772;2023-07-28T08:36:45;71190.78;;;-144.06;21.21
11017;BME280;54687;50.800;6.772;2023-07-28T08:39:12;73453.78;;;-144.06;21.08
11017;BME280;54687;50.800;6.772;2023-07-28T08:41:40;74817.34;;;-144.06;21.32
11017;BME280;54687;50.800;6.772;2023-07-28T08:44:07;73752.53;;;-144.06;21.52
11017;BME280;54687;50.800;6.772;2023-07-28T08:46:33;70291.06;;;-144.06;21.23
11017;BME280;54687;50.800;6.772;2023-07-28T08:49:01;69336.91;;;-144.06;21.03
11017;BME280;54687;50.800;6.772;2023-07-28T08:51:27;69101.59;;;-144.06;20.65
11017;BME280;54687;50.800;6.772;2023-07-28T08:53:55;69551.25;;;-144.06;21.10
11017;BME280;54687;50.800;6.772;2023-07-28T08:56:23;66963.25;;;-144.06;20.70
11017;BME280;54687;50.800;6.772;2023-07-28T08:58:57;67622.69;;;-144.06;20.73
11017;BME280;54687;50.800;6.772;2023-07-28T09:01:24;67286.66;;;-144.06;20.80
11017;BME280;54687;50.800;6.772;2023-07-28T09:03:50;66982.16;;;-144.06;20.41
11017;BME280;54687;50.800;6.772;2023-07-28T09:06:17;69244.47;;;-144.06;20.74
11017;BME280;54687;50.800;6.772;2023-07-28T09:08:45;68948.19;;;-144.06;20.63
11017;BME280;54687;50.800;6.772;2023-07-28T09:11:13;67332.84;;;-144.06;20.61
11017;BME280;54687;50.800;6.772;2023-07-28T09:13:41;66018.44;;;-144.06;20.56
11017;BME280;54687;50.800;6.772;2023-07-28T09:16:16;62898.25;;;-144.06;20.03
11017;BME280;54687;50.800;6.772;2023-07-28T09:18:43;61759.59;;;-144.06;20.26
11017;BME280;54687;50.800;6.772;2023-07-28T09:21:16;59839.59;;;-144.06;20.17
11017;BME280;54687;50.800;6.772;2023-07-28T09:23:43;57131.22;;;-144.06;20.00
11017;BME280;54687;50.800;6.772;2023-07-28T09:26:10;56287.53;;;-144.06;19.96
11017;BME280;54687;50.800;6.772;2023-07-28T09:28:39;56959.53;;;-144.06;19.77
11017;BME280;54687;50.800;6.772;2023-07-28T09:31:07;61409.47;;;-144.06;19.97
11017;BME280;54687;50.800;6.772;2023-07-28T09:33:36;63345.03;;;-144.06;20.35
11017;BME280;54687;50.800;6.772;2023-07-28T09:36:10;69845.47;;;-144.06;20.31
11017;BME280;54687;50.800;6.772;2023-07-28T09:38:38;72654.41;;;-144.06;20.80
11017;BME280;54687;50.800;6.772;2023-07-28T09:41:07;73533.72;;;-144.06;21.20
11017;BME280;54687;50.800;6.772;2023-07-28T09:43:36;72397.81;;;-144.06;20.93
11017;BME280;54687;50.800;6.772;2023-07-28T09:46:05;73523.19;;;-144.06;20.83
11017;BME280;54687;50.800;6.772;2023-07-28T09:48:33;74476.41;;;-144.06;21.30
11017;BME280;54687;50.800;6.772;2023-07-28T09:51:03;72822.69;;;-144.06;20.76
11017;BME280;54687;50.800;6.772;2023-07-28T09:53:36;74127.06;;;-144.06;21.12
11017;BME280;54687;50.800;6.772;2023-07-28T09:56:07;74876.28;;;-144.06;21.12
11017;BME280;54687;50.800;6.772;2023-07-28T09:58:38;73782.00;;;-144.06;21.00
11017;BME280;54687;50.800;6.772;2023-07-28T10:01:09;74124.97;;;-144.06;21.05
11017;BME280;54687;50.800;6.772;2023-07-28T10:03:37;75874.06;;;-144.06;21.04
11017;BME280;54687;50.800;6.772;2023-07-28T10:06:04;76328.84;;;-144.06;21.17
11017;BME280;54687;50.800;6.772;2023-07-28T10:08:31;77331.25;;;-144.06;21.25
11017;BME280;54687;50.800;6.772;2023-07-28T10:10:58;77685.13;;;-144.06;21.46
11017;BME280;54687;50.800;6.772;2023-07-28T10:13:25;77049.03;;;-144.06;21.39
11017;BME280;54687;50.800;6.772;2023-07-28T10:15:53;77887.34;;;-144.06;21.36
11017;BME280;54687;50.800;6.772;2023-07-28T10:18:21;78350.81;;;-144.06;21.49
11017;BME280;54687;50.800;6.772;2023-07-28T10:20:48;78546.75;;;-144.06;21.45
11017;BME280;54687;50.800;6.772;2023-07-28T10:23:17;77613.50;;;-144.06;21.28
11017;BME280;54687;50.800;6.772;2023-07-28T10:25:46;78194.91;;;-144.06;21.50
11017;BME280;54687;50.800;6.772;2023-07-28T10:28:26;77668.25;;;-144.06;21.49
11017;BME280;54687;50.800;6.772;2023-07-28T10:30:54;77162.75;;;-144.06;21.49
11017;BME280;54687;50.800;6.772;2023-07-28T10:33:32;77655.63;;;-144.06;21.24
11017;BME280;54687;50.800;6.772;2023-07-28T10:36:08;77369.16;;;-144.06;21.27
11017;BME280;54687;50.800;6.772;2023-07-28T10:38:37;78131.72;;;-144.06;21.69
11017;BME280;54687;50.800;6.772;2023-07-28T10:41:09;78365.56;;;-144.06;21.67
11017;BME280;54687;50.800;6.772;2023-07-28T10:43:36;78085.38;;;-144.06;21.56
11017;BME280;54687;50.800;6.772;2023-07-28T10:46:04;77539.78;;;-144.06;21.64
11017;BME280;54687;50.800;6.772;2023-07-28T10:48:34;77230.16;;;-144.06;21.47
11017;BME280;54687;50.800;6.772;2023-07-28T10:51:01;77171.19;;;-144.06;21.12
11017;BME280;54687;50.800;6.772;2023-07-28T10:53:27;76733.13;;;-144.06;21.18
11017;BME280;54687;50.800;6.772;2023-07-28T10:55:54;76749.97;;;-144.06;21.20
11017;BME280;54687;50.800;6.772;2023-07-28T10:58:20;77002.69;;;-144.06;21.35
11017;BME280;54687;50.800;6.772;2023-07-28T11:00:50;76356.22;;;-144.06;21.37
11017;BME280;54687;50.800;6.772;2023-07-28T11:03:17;77525.03;;;-144.06;21.29
11017;BME280;54687;50.800;6.772;2023-07-28T11:05:48;77685.13;;;-144.06;21.36
11017;BME280;54687;50.800;6.772;2023-07-28T11:08:16;77935.78;;;-144.06;21.35
11017;BME280;54687;50.800;6.772;2023-07-28T11:10:43;76983.75;;;-144.06;21.24
11017;BME280;54687;50.800;6.772;2023-07-28T11:13:10;78043.22;;;-144.06;21.39
11017;BME280;54687;50.800;6.772;2023-07-28T11:15:37;77813.63;;;-144.06;21.43
11017;BME280;54687;50.800;6.772;2023-07-28T11:18:04;78325.53;;;-144.06;21.35
11017;BME280;54687;50.800;6.772;2023-07-28T11:20:32;78624.72;;;-144.06;21.20
11017;BME280;54687;50.800;6.772;2023-07-28T11:23:02;78734.28;;;-144.06;21.40
11017;BME280;54687;50.800;6.772;2023-07-28T11:25:31;78778.53;;;-144.06;21.34
11017;BME280;54687;50.800;6.772;2023-07-28T11:28:00;80654.38;;;-144.06;21.20
11017;BME280;54687;50.800;6.772;2023-07-28T11:30:28;79996.66;;;-144.06;21.22
11017;BME280;54687;50.800;6.772;2023-07-28T11:32:55;80386.66;;;-144.06;21.35
11017;BME280;54687;50.800;6.772;2023-07-28T11:35:22;78637.38;;;-144.06;21.34
11017;BME280;54687;50.800;6.772;2023-07-28T11:37:50;78641.56;;;-144.06;21.37
11017;BME280;54687;50.800;6.772;2023-07-28T11:40:20;76945.84;;;-144.06;21.32
11017;BME280;54687;50.800;6.772;2023-07-28T11:42:49;76842.66;;;-144.06;20.88
11017;BME280;54687;50.800;6.772;2023-07-28T11:45:17;77173.28;;;-144.06;21.32
11017;BME280;54687;50.800;6.772;2023-07-28T11:47:58;76303.56;;;-144.06;21.21
11017;BME280;54687;50.800;6.772;2023-07-28T11:50:26;75718.25;;;-144.06;20.85
11017;BME280;54687;50.800;6.772;2023-07-28T11:52:53;75840.38;;;-144.06;20.96
11017;BME280;54687;50.800;6.772;2023-07-28T11:55:21;74707.91;;;-144.06;21.14
11017;BME280;54687;50.800;6.772;2023-07-28T11:57:49;72585.00;;;-144.06;21.00
11017;BME280;54687;50.800;6.772;2023-07-28T12:00:16;72795.34;;;-144.06;20.80
11017;BME280;54687;50.800;6.772;2023-07-28T12:02:44;73537.94;;;-144.06;20.88
11017;BME280;54687;50.800;6.772;2023-07-28T12:05:13;74337.50;;;-144.06;20.79
11017;BME280;54687;50.800;6.772;2023-07-28T12:07:40;75711.94;;;-144.06;21.13
11017;BME280;54687;50.800;6.772;2023-07-28T12:10:07;77491.34;;;-144.06;21.09
11017;BME280;54687;50.800;6.772;2023-07-28T12:12:44;77491.34;;;-144.06;21.11
11017;BME280;54687;50.800;6.772;2023-07-28T12:15:22;78072.72;;;-144.06;21.27
11017;BME280;54687;50.800;6.772;2023-07-28T12:18:03;77605.06;;;-144.06;21.12
11017;BME280;54687;50.800;6.772;2023-07-28T12:20:33;77086.94;;;-144.06;21.32
11017;BME280;54687;50.800;6.772;2023-07-28T12:23:00;77965.28;;;-144.06;21.29
11017;BME280;54687;50.800;6.772;2023-07-28T12:25:27;78140.13;;;-144.06;21.42
11017;BME280;54687;50.800;6.772;2023-07-28T12:27:56;78477.22;;;-144.06;21.27
11017;BME280;54687;50.800;6.772;2023-07-28T12:30:23;77708.28;;;-144.06;21.24
11017;BME280;54687;50.800;6.772;2023-07-28T12:32:49;76929.00;;;-144.06;21.11
11017;BME280;54687;50.800;6.772;2023-07-28T12:35:16;76093.00;;;-144.06;21.05
11017;BME280;54687;50.800;6.772;2023-07-28T12:37:43;75861.41;;;-144.06;21.20
11017;BME280;54687;50.800;6.772;2023-07-28T12:40:10;75524.59;;;-144.06;20.87
11017;BME280;54687;50.800;6.772;2023-07-28T12:42:37;74209.13;;;-144.06;20.68